createdAt,value
2017-01-16T00:00:41.588Z,0
2017-01-16T00:01:41.600Z,0
2017-01-16T00:02:41.616Z,0
2017-01-16T00:03:41.623Z,0
2017-01-16T00:04:41.631Z,0
2017-01-16T00:05:41.646Z,0
2017-01-16T00:06:41.656Z,0
2017-01-16T00:07:41.670Z,0
2017-01-16T00:08:41.678Z,0
2017-01-16T00:09:41.696Z,0
2017-01-16T00:10:41.701Z,0
2017-01-16T00:11:41.717Z,0
2017-01-16T00:12:41.727Z,0
2017-01-16T00:13:41.738Z,0
2017-01-16T00:14:41.751Z,0
2017-01-16T00:15:41.758Z,0
2017-01-16T00:16:42.191Z,0
2017-01-16T00:17:41.785Z,0
2017-01-16T00:18:41.801Z,0
2017-01-16T00:19:41.804Z,0
2017-01-16T00:20:41.815Z,0
2017-01-16T00:21:41.833Z,0
2017-01-16T00:22:41.841Z,0
2017-01-16T00:23:41.851Z,0
2017-01-16T00:24:41.867Z,0
2017-01-16T00:25:41.903Z,0
2017-01-16T00:26:41.886Z,0
2017-01-16T00:27:41.900Z,0
2017-01-16T00:28:41.914Z,0
2017-01-16T00:29:41.927Z,0
2017-01-16T00:30:41.934Z,0
2017-01-16T00:31:41.947Z,0
2017-01-16T00:32:41.953Z,0
2017-01-16T00:33:41.969Z,0
2017-01-16T00:34:41.989Z,0
2017-01-16T00:35:41.988Z,0
2017-01-16T00:36:42.004Z,0
2017-01-16T00:37:42.018Z,0
2017-01-16T00:38:42.170Z,0
2017-01-16T00:39:42.128Z,0
2017-01-16T00:40:42.259Z,0
2017-01-16T00:41:42.176Z,0
2017-01-16T00:42:42.068Z,0
2017-01-16T00:43:42.083Z,0
2017-01-16T00:44:42.109Z,0
2017-01-16T00:45:42.109Z,0
2017-01-16T00:46:42.117Z,0
2017-01-16T00:47:42.126Z,0
2017-01-16T00:48:42.138Z,0
2017-01-16T00:49:42.272Z,0
2017-01-16T00:50:42.167Z,0
2017-01-16T00:51:42.165Z,0
2017-01-16T00:52:42.182Z,0
2017-01-16T00:53:42.202Z,0
2017-01-16T00:54:42.240Z,0
2017-01-16T00:55:42.219Z,0
2017-01-16T00:56:42.228Z,0
2017-01-16T00:57:42.248Z,0
2017-01-16T00:58:42.255Z,0
2017-01-16T00:59:42.412Z,0
2017-01-16T01:00:42.791Z,0
2017-01-16T01:01:42.387Z,0
2017-01-16T01:02:42.387Z,0
2017-01-16T01:03:42.398Z,0
2017-01-16T01:04:42.410Z,0
2017-01-16T01:05:42.428Z,0
2017-01-16T01:06:42.536Z,0
2017-01-16T01:07:42.528Z,0
2017-01-16T01:08:42.543Z,0
2017-01-16T01:09:42.581Z,0
2017-01-16T01:10:42.507Z,0
2017-01-16T01:11:42.692Z,0
2017-01-16T01:12:45.456Z,0
2017-01-16T01:13:42.447Z,0
2017-01-16T01:14:42.482Z,0
2017-01-16T01:15:42.492Z,0
2017-01-16T01:16:42.541Z,0
2017-01-16T01:17:42.548Z,0
2017-01-16T01:18:42.492Z,0
2017-01-16T01:19:42.524Z,0
2017-01-16T01:20:42.514Z,0
2017-01-16T01:21:42.533Z,0
2017-01-16T01:22:42.534Z,0
2017-01-16T01:23:42.545Z,0
2017-01-16T01:24:42.694Z,0
2017-01-16T01:25:42.708Z,0
2017-01-16T01:26:42.578Z,0
2017-01-16T01:27:42.593Z,0
2017-01-16T01:28:42.603Z,0
2017-01-16T01:29:42.616Z,0
2017-01-16T01:30:42.626Z,0
2017-01-16T01:31:42.758Z,0
2017-01-16T01:32:42.648Z,0
2017-01-16T01:33:42.653Z,0
2017-01-16T01:34:42.670Z,0
2017-01-16T01:35:42.687Z,0
2017-01-16T01:36:42.691Z,0
2017-01-16T01:37:42.695Z,0
2017-01-16T01:38:42.744Z,0
2017-01-16T01:39:42.874Z,0
2017-01-16T01:40:42.743Z,0
2017-01-16T01:41:42.739Z,0
2017-01-16T01:42:42.761Z,0
2017-01-16T01:43:42.772Z,0
2017-01-16T01:44:42.895Z,0
2017-01-16T01:45:42.918Z,0
2017-01-16T01:46:42.927Z,0
2017-01-16T01:47:42.817Z,0
2017-01-16T01:48:42.833Z,0
2017-01-16T01:49:42.839Z,0
2017-01-16T01:50:42.850Z,0
2017-01-16T01:51:42.858Z,0
2017-01-16T01:52:42.875Z,0
2017-01-16T01:53:42.886Z,0
2017-01-16T01:54:42.899Z,0
2017-01-16T01:55:42.913Z,0
2017-01-16T01:56:43.012Z,0
2017-01-16T01:57:42.926Z,0
2017-01-16T01:58:42.995Z,0
2017-01-16T01:59:43.191Z,0
2017-01-16T02:00:43.082Z,0
2017-01-16T02:01:43.066Z,0
2017-01-16T02:02:43.151Z,0
2017-01-16T02:03:43.243Z,0
2017-01-16T02:04:43.009Z,0
2017-01-16T02:05:43.025Z,0
2017-01-16T02:06:43.040Z,0
2017-01-16T02:07:43.103Z,0
2017-01-16T02:08:43.150Z,0
2017-01-16T02:09:43.072Z,0
2017-01-16T02:10:43.084Z,0
2017-01-16T02:11:43.091Z,0
2017-01-16T02:12:43.101Z,0
2017-01-16T02:13:43.229Z,0
2017-01-16T02:14:43.127Z,0
2017-01-16T02:15:43.143Z,0
2017-01-16T02:16:43.160Z,0
2017-01-16T02:17:43.170Z,0
2017-01-16T02:18:43.262Z,0
2017-01-16T02:19:43.234Z,0
2017-01-16T02:20:43.323Z,0
2017-01-16T02:21:43.609Z,0
2017-01-16T02:22:43.221Z,0
2017-01-16T02:23:43.355Z,0
2017-01-16T02:24:43.354Z,0
2017-01-16T02:25:43.261Z,0
2017-01-16T02:26:43.333Z,0
2017-01-16T02:27:43.456Z,0
2017-01-16T02:28:43.289Z,0
2017-01-16T02:29:43.295Z,0
2017-01-16T02:30:43.310Z,0
2017-01-16T02:31:43.318Z,0
2017-01-16T02:32:43.332Z,0
2017-01-16T02:33:43.341Z,0
2017-01-16T02:34:43.448Z,0
2017-01-16T02:35:43.370Z,0
2017-01-16T02:36:43.377Z,0
2017-01-16T02:37:43.384Z,0
2017-01-16T02:38:43.396Z,0
2017-01-16T02:39:43.410Z,0
2017-01-16T02:40:43.417Z,0
2017-01-16T02:41:43.624Z,0
2017-01-16T02:42:43.633Z,0
2017-01-16T02:43:43.452Z,0
2017-01-16T02:44:43.463Z,0
2017-01-16T02:45:43.483Z,0
2017-01-16T02:46:43.490Z,0
2017-01-16T02:47:43.524Z,0
2017-01-16T02:48:43.626Z,0
2017-01-16T02:49:43.527Z,0
2017-01-16T02:50:43.534Z,0
2017-01-16T02:51:43.606Z,0
2017-01-16T02:52:43.939Z,0
2017-01-16T02:53:43.566Z,0
2017-01-16T02:54:43.579Z,0
2017-01-16T02:55:43.590Z,0
2017-01-16T02:56:43.602Z,0
2017-01-16T02:57:43.613Z,0
2017-01-16T02:58:43.712Z,0
2017-01-16T02:59:43.632Z,0
2017-01-16T03:00:43.643Z,0
2017-01-16T03:01:43.660Z,0
2017-01-16T03:02:43.671Z,0
2017-01-16T03:03:43.685Z,0
2017-01-16T03:04:43.697Z,0
2017-01-16T03:05:43.700Z,0
2017-01-16T03:06:43.823Z,0
2017-01-16T03:07:43.720Z,0
2017-01-16T03:08:43.742Z,0
2017-01-16T03:09:43.751Z,0
2017-01-16T03:10:43.760Z,0
2017-01-16T03:11:43.765Z,0
2017-01-16T03:12:43.781Z,0
2017-01-16T03:13:43.792Z,0
2017-01-16T03:14:43.804Z,0
2017-01-16T03:15:43.847Z,0
2017-01-16T03:16:43.824Z,0
2017-01-16T03:17:43.834Z,0
2017-01-16T03:18:43.847Z,0
2017-01-16T03:19:43.858Z,0
2017-01-16T03:20:43.874Z,0
2017-01-16T03:21:43.880Z,0
2017-01-16T03:22:43.895Z,0
2017-01-16T03:23:43.917Z,0
2017-01-16T03:24:43.922Z,0
2017-01-16T03:25:43.926Z,0
2017-01-16T03:26:43.994Z,0
2017-01-16T03:27:43.950Z,0
2017-01-16T03:28:44.002Z,0
2017-01-16T03:29:44.097Z,0
2017-01-16T03:30:44.020Z,0
2017-01-16T03:31:44.029Z,0
2017-01-16T03:32:44.003Z,0
2017-01-16T03:33:44.015Z,0
2017-01-16T03:34:44.028Z,0
2017-01-16T03:35:44.035Z,0
2017-01-16T03:36:44.050Z,0
2017-01-16T03:37:44.060Z,0
2017-01-16T03:38:44.074Z,0
2017-01-16T03:39:44.080Z,0
2017-01-16T03:40:44.213Z,0
2017-01-16T03:41:44.194Z,0
2017-01-16T03:42:44.231Z,0
2017-01-16T03:43:44.222Z,0
2017-01-16T03:44:44.230Z,0
2017-01-16T03:45:44.238Z,0
2017-01-16T03:46:44.346Z,0
2017-01-16T03:47:44.492Z,0
2017-01-16T03:48:44.358Z,0
2017-01-16T03:49:44.364Z,0
2017-01-16T03:50:44.374Z,0
2017-01-16T03:51:44.379Z,0
2017-01-16T03:52:44.227Z,0
2017-01-16T03:53:44.243Z,0
2017-01-16T03:54:44.261Z,0
2017-01-16T03:55:44.267Z,0
2017-01-16T03:56:44.285Z,0
2017-01-16T03:57:44.287Z,0
2017-01-16T03:58:44.326Z,0
2017-01-16T03:59:44.312Z,0
2017-01-16T04:00:44.322Z,0
2017-01-16T04:01:44.429Z,0
2017-01-16T04:02:45.840Z,0
2017-01-16T04:03:44.371Z,0
2017-01-16T04:04:44.374Z,0
2017-01-16T04:05:44.382Z,0
2017-01-16T04:06:44.386Z,0
2017-01-16T04:07:44.457Z,0
2017-01-16T04:08:44.500Z,0
2017-01-16T04:09:44.419Z,0
2017-01-16T04:10:44.553Z,0
2017-01-16T04:11:44.445Z,0
2017-01-16T04:12:44.507Z,0
2017-01-16T04:13:44.473Z,0
2017-01-16T04:14:44.477Z,0
2017-01-16T04:15:44.489Z,0
2017-01-16T04:16:44.588Z,0
2017-01-16T04:17:44.515Z,0
2017-01-16T04:18:44.523Z,0
2017-01-16T04:19:44.536Z,0
2017-01-16T04:20:44.543Z,0
2017-01-16T04:21:44.557Z,0
2017-01-16T04:22:44.566Z,0
2017-01-16T04:23:44.590Z,0
2017-01-16T04:24:44.986Z,0
2017-01-16T04:25:44.693Z,0
2017-01-16T04:26:44.613Z,0
2017-01-16T04:27:44.628Z,0
2017-01-16T04:28:44.635Z,0
2017-01-16T04:29:44.650Z,0
2017-01-16T04:30:44.659Z,0
2017-01-16T04:31:44.668Z,0
2017-01-16T04:32:44.687Z,0
2017-01-16T04:33:44.686Z,0
2017-01-16T04:34:44.703Z,0
2017-01-16T04:35:44.718Z,0
2017-01-16T04:36:44.724Z,0
2017-01-16T04:37:44.736Z,0
2017-01-16T04:38:44.772Z,0
2017-01-16T04:39:44.759Z,0
2017-01-16T04:40:44.772Z,0
2017-01-16T04:41:44.786Z,0
2017-01-16T04:42:44.793Z,0
2017-01-16T04:43:44.802Z,0
2017-01-16T04:44:44.818Z,0
2017-01-16T04:45:44.833Z,0
2017-01-16T04:46:44.838Z,0
2017-01-16T04:47:44.964Z,0
2017-01-16T04:48:44.955Z,0
2017-01-16T04:49:44.984Z,0
2017-01-16T04:50:45.098Z,0
2017-01-16T04:51:45.011Z,0
2017-01-16T04:52:45.110Z,0
2017-01-16T04:53:45.121Z,0
2017-01-16T04:54:45.128Z,0
2017-01-16T04:55:45.135Z,0
2017-01-16T04:56:45.063Z,0
2017-01-16T04:57:45.092Z,0
2017-01-16T04:58:45.099Z,0
2017-01-16T04:59:45.096Z,0
2017-01-16T05:00:45.176Z,0
2017-01-16T05:01:45.116Z,0
2017-01-16T05:02:45.124Z,0
2017-01-16T05:03:45.141Z,0
2017-01-16T05:04:45.166Z,0
2017-01-16T05:05:45.167Z,0
2017-01-16T05:06:45.064Z,0
2017-01-16T05:07:45.079Z,0
2017-01-16T05:08:45.085Z,0
2017-01-16T05:09:45.095Z,0
2017-01-16T05:10:45.114Z,0
2017-01-16T05:11:45.228Z,0
2017-01-16T05:12:45.247Z,0
2017-01-16T05:13:45.144Z,0
2017-01-16T05:14:45.278Z,0
2017-01-16T05:15:45.282Z,0
2017-01-16T05:16:45.297Z,0
2017-01-16T05:17:45.388Z,0
2017-01-16T05:18:45.307Z,0
2017-01-16T05:19:45.351Z,0
2017-01-16T05:20:45.223Z,0
2017-01-16T05:21:45.348Z,0
2017-01-16T05:22:45.354Z,0
2017-01-16T05:23:45.321Z,0
2017-01-16T05:24:45.266Z,0
2017-01-16T05:25:45.277Z,0
2017-01-16T05:26:45.289Z,0
2017-01-16T05:27:45.298Z,0
2017-01-16T05:28:45.423Z,0
2017-01-16T05:29:45.325Z,0
2017-01-16T05:30:45.407Z,0
2017-01-16T05:31:45.456Z,0
2017-01-16T05:32:45.356Z,0
2017-01-16T05:33:45.364Z,0
2017-01-16T05:34:45.378Z,0
2017-01-16T05:35:45.556Z,0
2017-01-16T05:36:45.400Z,0
2017-01-16T05:37:45.410Z,0
2017-01-16T05:38:45.564Z,0
2017-01-16T05:39:45.432Z,0
2017-01-16T05:40:45.447Z,0
2017-01-16T05:41:45.452Z,0
2017-01-16T05:42:45.466Z,0
2017-01-16T05:43:45.475Z,0
2017-01-16T05:44:45.488Z,0
2017-01-16T05:45:45.623Z,0
2017-01-16T05:46:45.624Z,0
2017-01-16T05:47:45.525Z,0
2017-01-16T05:48:45.534Z,0
2017-01-16T05:49:45.551Z,0
2017-01-16T05:50:45.672Z,0
2017-01-16T05:51:45.672Z,0
2017-01-16T05:52:45.692Z,0
2017-01-16T05:53:45.593Z,0
2017-01-16T05:54:45.601Z,0
2017-01-16T05:55:45.616Z,0
2017-01-16T05:56:45.740Z,0
2017-01-16T05:57:45.638Z,0
2017-01-16T05:58:45.644Z,0
2017-01-16T05:59:45.775Z,0
2017-01-16T06:00:46.068Z,0
2017-01-16T06:01:45.681Z,0
2017-01-16T06:02:45.811Z,0
2017-01-16T06:03:45.724Z,0
2017-01-16T06:04:45.829Z,0
2017-01-16T06:05:45.840Z,0
2017-01-16T06:06:45.852Z,0
2017-01-16T06:07:45.743Z,0
2017-01-16T06:08:45.759Z,0
2017-01-16T06:09:45.883Z,0
2017-01-16T06:10:45.989Z,0
2017-01-16T06:11:45.793Z,0
2017-01-16T06:12:45.804Z,0
2017-01-16T06:13:45.929Z,0
2017-01-16T06:14:45.936Z,0
2017-01-16T06:15:45.837Z,0
2017-01-16T06:16:46.019Z,0
2017-01-16T06:17:45.856Z,0
2017-01-16T06:18:45.871Z,0
2017-01-16T06:19:46.019Z,0
2017-01-16T06:20:46.003Z,0
2017-01-16T06:21:46.015Z,0
2017-01-16T06:22:46.024Z,0
2017-01-16T06:23:45.936Z,0
2017-01-16T06:24:46.072Z,0
2017-01-16T06:25:45.946Z,0
2017-01-16T06:26:46.054Z,0
2017-01-16T06:27:46.089Z,0
2017-01-16T06:28:45.977Z,0
2017-01-16T06:29:46.111Z,0
2017-01-16T06:30:46.124Z,0
2017-01-16T06:31:46.122Z,0
2017-01-16T06:32:46.141Z,0
2017-01-16T06:33:46.150Z,0
2017-01-16T06:34:46.047Z,0
2017-01-16T06:35:46.060Z,0
2017-01-16T06:36:46.181Z,0
2017-01-16T06:37:46.079Z,0
2017-01-16T06:38:46.203Z,0
2017-01-16T06:39:46.110Z,0
2017-01-16T06:40:46.110Z,0
2017-01-16T06:41:46.133Z,0
2017-01-16T06:42:46.318Z,0
2017-01-16T06:43:46.260Z,0
2017-01-16T06:44:46.161Z,0
2017-01-16T06:45:46.286Z,0
2017-01-16T06:46:46.181Z,0
2017-01-16T06:47:46.194Z,0
2017-01-16T06:48:46.316Z,0
2017-01-16T06:49:46.219Z,0
2017-01-16T06:50:46.334Z,0
2017-01-16T06:51:46.264Z,4
2017-01-16T06:52:46.387Z,4
2017-01-16T06:53:46.261Z,0
2017-01-16T06:54:46.267Z,0
2017-01-16T06:55:46.281Z,0
2017-01-16T06:56:46.316Z,4
2017-01-16T06:57:46.422Z,4
2017-01-16T06:58:46.314Z,4
2017-01-16T06:59:46.398Z,8
2017-01-16T07:00:46.339Z,8
2017-01-16T07:01:46.451Z,4
2017-01-16T07:02:46.365Z,8
2017-01-16T07:03:46.368Z,8
2017-01-16T07:04:46.405Z,8
2017-01-16T07:05:46.509Z,8
2017-01-16T07:06:46.405Z,8
2017-01-16T07:07:46.417Z,4
2017-01-16T07:08:46.421Z,8
2017-01-16T07:09:46.437Z,8
2017-01-16T07:10:46.445Z,12
2017-01-16T07:11:46.458Z,8
2017-01-16T07:12:46.469Z,12
2017-01-16T07:13:46.490Z,12
2017-01-16T07:14:46.506Z,12
2017-01-16T07:15:46.988Z,12
2017-01-16T07:16:46.513Z,12
2017-01-16T07:17:46.635Z,16
2017-01-16T07:18:46.534Z,16
2017-01-16T07:19:46.548Z,16
2017-01-16T07:20:46.555Z,20
2017-01-16T07:21:46.644Z,16
2017-01-16T07:22:46.580Z,20
2017-01-16T07:23:46.710Z,24
2017-01-16T07:24:46.614Z,20
2017-01-16T07:25:46.613Z,24
2017-01-16T07:26:46.625Z,24
2017-01-16T07:27:46.633Z,24
2017-01-16T07:28:46.671Z,24
2017-01-16T07:29:46.663Z,24
2017-01-16T07:30:46.667Z,28
2017-01-16T07:31:46.795Z,24
2017-01-16T07:32:46.688Z,24
2017-01-16T07:33:46.703Z,24
2017-01-16T07:34:46.833Z,28
2017-01-16T07:35:46.726Z,28
2017-01-16T07:36:46.951Z,24
2017-01-16T07:37:46.860Z,24
2017-01-16T07:38:46.763Z,24
2017-01-16T07:39:46.767Z,24
2017-01-16T07:40:46.888Z,28
2017-01-16T07:41:46.789Z,28
2017-01-16T07:42:46.808Z,28
2017-01-16T07:43:46.820Z,28
2017-01-16T07:44:46.935Z,32
2017-01-16T07:45:46.841Z,32
2017-01-16T07:46:46.843Z,36
2017-01-16T07:47:46.975Z,32
2017-01-16T07:48:46.870Z,36
2017-01-16T07:49:46.885Z,40
2017-01-16T07:50:46.896Z,36
2017-01-16T07:51:46.908Z,40
2017-01-16T07:52:47.058Z,48
2017-01-16T07:53:46.924Z,44
2017-01-16T07:54:47.047Z,44
2017-01-16T07:55:46.944Z,44
2017-01-16T07:56:46.960Z,48
2017-01-16T07:57:46.968Z,48
2017-01-16T07:58:46.976Z,48
2017-01-16T07:59:46.994Z,48
2017-01-16T08:00:47.174Z,48
2017-01-16T08:01:47.131Z,48
2017-01-16T08:02:47.024Z,52
2017-01-16T08:03:47.037Z,56
2017-01-16T08:04:47.046Z,56
2017-01-16T08:05:47.200Z,60
2017-01-16T08:06:47.069Z,60
2017-01-16T08:07:47.078Z,64
2017-01-16T08:08:47.098Z,64
2017-01-16T08:09:47.102Z,64
2017-01-16T08:10:47.255Z,64
2017-01-16T08:11:47.125Z,72
2017-01-16T08:12:47.243Z,68
2017-01-16T08:13:47.146Z,68
2017-01-16T08:14:47.155Z,68
2017-01-16T08:15:47.167Z,68
2017-01-16T08:16:47.178Z,68
2017-01-16T08:17:47.193Z,68
2017-01-16T08:18:47.316Z,68
2017-01-16T08:19:47.211Z,68
2017-01-16T08:20:47.390Z,72
2017-01-16T08:21:47.228Z,72
2017-01-16T08:22:47.244Z,68
2017-01-16T08:23:47.257Z,76
2017-01-16T08:24:47.385Z,80
2017-01-16T08:25:47.494Z,84
2017-01-16T08:26:47.298Z,84
2017-01-16T08:27:47.418Z,84
2017-01-16T08:28:47.313Z,92
2017-01-16T08:29:47.320Z,88
2017-01-16T08:30:47.340Z,96
2017-01-16T08:31:47.459Z,104
2017-01-16T08:32:47.352Z,104
2017-01-16T08:33:47.487Z,112
2017-01-16T08:34:47.380Z,120
2017-01-16T08:35:47.389Z,128
2017-01-16T08:36:47.401Z,128
2017-01-16T08:37:47.420Z,136
2017-01-16T08:38:47.478Z,144
2017-01-16T08:39:47.437Z,140
2017-01-16T08:40:47.450Z,140
2017-01-16T08:41:47.580Z,144
2017-01-16T08:42:47.468Z,140
2017-01-16T08:43:47.487Z,144
2017-01-16T08:44:47.493Z,144
2017-01-16T08:45:47.509Z,144
2017-01-16T08:46:47.512Z,144
2017-01-16T08:47:47.524Z,148
2017-01-16T08:48:47.537Z,148
2017-01-16T08:49:47.551Z,156
2017-01-16T08:50:47.560Z,156
2017-01-16T08:51:47.569Z,168
2017-01-16T08:52:47.582Z,168
2017-01-16T08:53:47.593Z,176
2017-01-16T08:54:47.603Z,168
2017-01-16T08:55:47.743Z,168
2017-01-16T08:56:47.620Z,168
2017-01-16T08:57:47.636Z,160
2017-01-16T08:58:47.651Z,160
2017-01-16T08:59:47.665Z,176
2017-01-16T09:00:47.671Z,172
2017-01-16T09:01:47.681Z,180
2017-01-16T09:02:47.694Z,188
2017-01-16T09:03:47.702Z,204
2017-01-16T09:04:47.795Z,212
2017-01-16T09:05:47.723Z,220
2017-01-16T09:06:47.735Z,224
2017-01-16T09:07:47.747Z,236
2017-01-16T09:08:47.759Z,232
2017-01-16T09:09:47.768Z,236
2017-01-16T09:10:47.785Z,248
2017-01-16T09:11:47.791Z,244
2017-01-16T09:12:47.812Z,232
2017-01-16T09:13:47.817Z,236
2017-01-16T09:14:47.822Z,244
2017-01-16T09:15:47.842Z,236
2017-01-16T09:16:47.882Z,244
2017-01-16T09:17:47.859Z,248
2017-01-16T09:18:47.876Z,248
2017-01-16T09:19:47.880Z,256
2017-01-16T09:20:47.896Z,252
2017-01-16T09:21:47.906Z,260
2017-01-16T09:22:47.913Z,268
2017-01-16T09:23:48.052Z,272
2017-01-16T09:24:48.048Z,260
2017-01-16T09:25:47.951Z,268
2017-01-16T09:26:47.964Z,264
2017-01-16T09:27:47.976Z,264
2017-01-16T09:28:47.984Z,256
2017-01-16T09:29:48.026Z,256
2017-01-16T09:30:48.003Z,228
2017-01-16T09:31:48.020Z,228
2017-01-16T09:32:48.034Z,204
2017-01-16T09:33:48.045Z,196
2017-01-16T09:34:48.048Z,180
2017-01-16T09:35:48.070Z,180
2017-01-16T09:36:48.076Z,184
2017-01-16T09:37:48.095Z,176
2017-01-16T09:38:48.098Z,172
2017-01-16T09:39:48.226Z,168
2017-01-16T09:40:48.132Z,172
2017-01-16T09:41:48.133Z,152
2017-01-16T09:42:48.150Z,148
2017-01-16T09:43:48.157Z,172
2017-01-16T09:44:48.169Z,148
2017-01-16T09:45:48.182Z,152
2017-01-16T09:46:48.192Z,156
2017-01-16T09:47:48.200Z,164
2017-01-16T09:48:48.215Z,168
2017-01-16T09:49:48.226Z,176
2017-01-16T09:50:48.237Z,196
2017-01-16T09:51:48.246Z,212
2017-01-16T09:52:48.265Z,232
2017-01-16T09:53:48.273Z,212
2017-01-16T09:54:48.283Z,200
2017-01-16T09:55:48.292Z,196
2017-01-16T09:56:48.301Z,188
2017-01-16T09:57:48.317Z,192
2017-01-16T09:58:48.327Z,204
2017-01-16T09:59:48.336Z,208
2017-01-16T10:00:48.352Z,220
2017-01-16T10:01:48.373Z,204
2017-01-16T10:02:48.767Z,200
2017-01-16T10:03:48.386Z,192
2017-01-16T10:04:48.391Z,188
2017-01-16T10:05:48.406Z,168
2017-01-16T10:06:48.419Z,168
2017-01-16T10:07:48.446Z,168
2017-01-16T10:08:48.440Z,164
2017-01-16T10:09:48.452Z,176
2017-01-16T10:10:48.464Z,156
2017-01-16T10:11:48.472Z,160
2017-01-16T10:12:48.486Z,168
2017-01-16T10:13:48.501Z,172
2017-01-16T10:14:48.509Z,168
2017-01-16T10:15:48.516Z,168
2017-01-16T10:16:48.533Z,180
2017-01-16T10:17:48.545Z,200
2017-01-16T10:18:48.557Z,188
2017-01-16T10:19:48.567Z,164
2017-01-16T10:20:48.574Z,168
2017-01-16T10:21:48.587Z,172
2017-01-16T10:22:48.601Z,176
2017-01-16T10:23:48.608Z,180
2017-01-16T10:24:48.622Z,180
2017-01-16T10:25:48.638Z,204
2017-01-16T10:26:48.645Z,200
2017-01-16T10:27:48.658Z,224
2017-01-16T10:28:48.674Z,244
2017-01-16T10:29:48.680Z,236
2017-01-16T10:30:48.692Z,248
2017-01-16T10:31:48.702Z,292
2017-01-16T10:32:48.708Z,288
2017-01-16T10:33:48.725Z,272
2017-01-16T10:34:48.735Z,316
2017-01-16T10:35:48.746Z,324
2017-01-16T10:36:48.785Z,292
2017-01-16T10:37:48.771Z,292
2017-01-16T10:38:48.783Z,332
2017-01-16T10:39:48.803Z,284
2017-01-16T10:40:48.808Z,328
2017-01-16T10:41:48.814Z,300
2017-01-16T10:42:48.830Z,268
2017-01-16T10:43:48.837Z,300
2017-01-16T10:44:48.848Z,296
2017-01-16T10:45:48.857Z,300
2017-01-16T10:46:48.871Z,292
2017-01-16T10:47:48.884Z,328
2017-01-16T10:48:48.897Z,280
2017-01-16T10:49:48.907Z,292
2017-01-16T10:50:48.920Z,276
2017-01-16T10:51:48.936Z,260
2017-01-16T10:52:48.945Z,256
2017-01-16T10:53:48.950Z,228
2017-01-16T10:54:48.962Z,236
2017-01-16T10:55:48.996Z,220
2017-01-16T10:56:48.990Z,216
2017-01-16T10:57:48.999Z,216
2017-01-16T10:58:49.021Z,240
2017-01-16T10:59:49.020Z,296
2017-01-16T11:00:49.067Z,288
2017-01-16T11:01:49.053Z,264
2017-01-16T11:02:49.053Z,264
2017-01-16T11:03:49.068Z,264
2017-01-16T11:04:49.078Z,256
2017-01-16T11:05:49.087Z,264
2017-01-16T11:06:49.102Z,280
2017-01-16T11:07:49.112Z,280
2017-01-16T11:08:49.121Z,280
2017-01-16T11:09:49.137Z,292
2017-01-16T11:10:49.147Z,280
2017-01-16T11:11:49.158Z,276
2017-01-16T11:12:49.176Z,284
2017-01-16T11:13:49.183Z,280
2017-01-16T11:14:49.191Z,296
2017-01-16T11:15:49.204Z,288
2017-01-16T11:16:49.216Z,280
2017-01-16T11:17:49.245Z,284
2017-01-16T11:18:49.232Z,296
2017-01-16T11:19:49.249Z,304
2017-01-16T11:20:49.256Z,296
2017-01-16T11:21:49.273Z,320
2017-01-16T11:22:49.280Z,340
2017-01-16T11:23:49.319Z,336
2017-01-16T11:24:49.303Z,352
2017-01-16T11:25:49.315Z,368
2017-01-16T11:26:49.325Z,388
2017-01-16T11:27:49.338Z,384
2017-01-16T11:28:49.351Z,396
2017-01-16T11:29:49.362Z,356
2017-01-16T11:30:49.369Z,344
2017-01-16T11:31:49.399Z,340
2017-01-16T11:32:49.395Z,364
2017-01-16T11:33:49.407Z,328
2017-01-16T11:34:49.416Z,320
2017-01-16T11:35:49.445Z,360
2017-01-16T11:36:49.446Z,320
2017-01-16T11:37:49.447Z,300
2017-01-16T11:38:49.463Z,316
2017-01-16T11:39:49.479Z,324
2017-01-16T11:40:49.485Z,312
2017-01-16T11:41:49.495Z,324
2017-01-16T11:42:49.514Z,324
2017-01-16T11:43:49.921Z,332
2017-01-16T11:44:49.531Z,360
2017-01-16T11:45:49.540Z,372
2017-01-16T11:46:49.554Z,352
2017-01-16T11:47:49.564Z,312
2017-01-16T11:48:49.573Z,328
2017-01-16T11:49:49.585Z,336
2017-01-16T11:50:49.594Z,344
2017-01-16T11:51:49.635Z,340
2017-01-16T11:52:49.612Z,320
2017-01-16T11:53:49.633Z,332
2017-01-16T11:54:49.639Z,320
2017-01-16T11:55:49.652Z,324
2017-01-16T11:56:49.669Z,328
2017-01-16T11:57:49.673Z,316
2017-01-16T11:58:49.690Z,356
2017-01-16T11:59:49.698Z,376
2017-01-16T12:00:49.713Z,392
2017-01-16T12:01:49.718Z,380
2017-01-16T12:02:49.731Z,384
2017-01-16T12:03:49.741Z,356
2017-01-16T12:04:49.757Z,392
2017-01-16T12:05:49.763Z,380
2017-01-16T12:06:49.776Z,424
2017-01-16T12:07:49.786Z,396
2017-01-16T12:08:49.799Z,428
2017-01-16T12:09:49.814Z,400
2017-01-16T12:10:49.821Z,412
2017-01-16T12:11:49.835Z,392
2017-01-16T12:12:49.852Z,356
2017-01-16T12:13:49.855Z,320
2017-01-16T12:14:49.868Z,340
2017-01-16T12:15:49.878Z,388
2017-01-16T12:16:49.893Z,372
2017-01-16T12:17:49.899Z,368
2017-01-16T12:18:49.917Z,328
2017-01-16T12:19:49.923Z,352
2017-01-16T12:20:49.934Z,356
2017-01-16T12:21:49.944Z,348
2017-01-16T12:22:49.958Z,460
2017-01-16T12:23:49.970Z,360
2017-01-16T12:24:49.979Z,476
2017-01-16T12:25:49.995Z,380
2017-01-16T12:26:49.999Z,432
2017-01-16T12:27:50.020Z,412
2017-01-16T12:28:50.032Z,352
2017-01-16T12:29:50.035Z,352
2017-01-16T12:30:50.049Z,328
2017-01-16T12:31:50.059Z,320
2017-01-16T12:32:50.072Z,352
2017-01-16T12:33:50.087Z,320
2017-01-16T12:34:50.096Z,272
2017-01-16T12:35:50.103Z,284
2017-01-16T12:36:50.115Z,300
2017-01-16T12:37:50.127Z,300
2017-01-16T12:38:50.146Z,292
2017-01-16T12:39:50.149Z,328
2017-01-16T12:40:50.161Z,364
2017-01-16T12:41:50.173Z,320
2017-01-16T12:42:50.209Z,312
2017-01-16T12:43:50.192Z,268
2017-01-16T12:44:50.207Z,252
2017-01-16T12:45:50.215Z,268
2017-01-16T12:46:50.223Z,300
2017-01-16T12:47:50.237Z,240
2017-01-16T12:48:50.253Z,260
2017-01-16T12:49:50.263Z,300
2017-01-16T12:50:50.273Z,264
2017-01-16T12:51:50.283Z,276
2017-01-16T12:52:50.293Z,264
2017-01-16T12:53:50.305Z,276
2017-01-16T12:54:50.323Z,264
2017-01-16T12:55:50.330Z,256
2017-01-16T12:56:50.340Z,256
2017-01-16T12:57:50.353Z,260
2017-01-16T12:58:50.361Z,236
2017-01-16T12:59:50.379Z,244
2017-01-16T13:00:50.391Z,268
2017-01-16T13:01:50.399Z,280
2017-01-16T13:02:50.404Z,292
2017-01-16T13:03:50.419Z,288
2017-01-16T13:04:50.428Z,332
2017-01-16T13:05:50.442Z,284
2017-01-16T13:06:50.447Z,304
2017-01-16T13:07:50.462Z,296
2017-01-16T13:08:50.482Z,292
2017-01-16T13:09:50.502Z,300
2017-01-16T13:10:50.502Z,300
2017-01-16T13:11:50.509Z,280
2017-01-16T13:12:50.520Z,236
2017-01-16T13:13:50.538Z,252
2017-01-16T13:14:50.549Z,232
2017-01-16T13:15:50.555Z,224
2017-01-16T13:16:50.569Z,224
2017-01-16T13:17:50.589Z,228
2017-01-16T13:18:50.598Z,212
2017-01-16T13:19:50.607Z,240
2017-01-16T13:20:50.614Z,220
2017-01-16T13:21:50.625Z,224
2017-01-16T13:22:50.649Z,260
2017-01-16T13:23:50.657Z,244
2017-01-16T13:24:50.662Z,264
2017-01-16T13:25:50.672Z,296
2017-01-16T13:26:50.690Z,284
2017-01-16T13:27:50.726Z,300
2017-01-16T13:28:50.706Z,244
2017-01-16T13:29:50.720Z,272
2017-01-16T13:30:50.730Z,264
2017-01-16T13:31:50.745Z,280
2017-01-16T13:32:50.754Z,320
2017-01-16T13:33:50.775Z,288
2017-01-16T13:34:50.775Z,260
2017-01-16T13:35:50.790Z,292
2017-01-16T13:36:50.806Z,252
2017-01-16T13:37:50.811Z,240
2017-01-16T13:38:50.824Z,212
2017-01-16T13:39:50.837Z,208
2017-01-16T13:40:50.851Z,208
2017-01-16T13:41:50.864Z,220
2017-01-16T13:42:50.877Z,212
2017-01-16T13:43:50.887Z,200
2017-01-16T13:44:50.895Z,220
2017-01-16T13:45:50.905Z,252
2017-01-16T13:46:50.918Z,252
2017-01-16T13:47:50.930Z,204
2017-01-16T13:48:50.964Z,176
2017-01-16T13:49:50.951Z,152
2017-01-16T13:50:50.970Z,144
2017-01-16T13:51:50.970Z,120
2017-01-16T13:52:50.985Z,120
2017-01-16T13:53:50.998Z,124
2017-01-16T13:54:51.012Z,124
2017-01-16T13:55:51.021Z,124
2017-01-16T13:56:51.032Z,128
2017-01-16T13:57:51.048Z,124
2017-01-16T13:58:51.055Z,124
2017-01-16T13:59:51.069Z,128
2017-01-16T14:00:51.081Z,128
2017-01-16T14:01:51.092Z,136
2017-01-16T14:02:51.106Z,132
2017-01-16T14:03:51.118Z,120
2017-01-16T14:04:51.133Z,120
2017-01-16T14:05:51.140Z,120
2017-01-16T14:06:51.150Z,124
2017-01-16T14:07:51.166Z,120
2017-01-16T14:08:51.170Z,124
2017-01-16T14:09:51.184Z,136
2017-01-16T14:10:51.198Z,140
2017-01-16T14:11:51.212Z,156
2017-01-16T14:12:51.230Z,148
2017-01-16T14:13:51.233Z,120
2017-01-16T14:14:51.245Z,120
2017-01-16T14:15:51.252Z,116
2017-01-16T14:16:51.264Z,124
2017-01-16T14:17:51.277Z,124
2017-01-16T14:18:51.288Z,136